sensor_id;sensor_type;location;lat;lon;timestamp;P1;durP1;ratioP1;P2;durP2;ratioP2
11827;SDS011;5971;49.646;8.568;2024-02-26T00:01:41;2.40;;;1.90;;
11827;SDS011;5971;49.646;8.568;2024-02-26T00:04:44;2.53;;;1.30;;
11827;SDS011;5971;49.646;8.568;2024-02-26T00:07:46;2.78;;;1.00;;
11827;SDS011;5971;49.646;8.568;2024-02-26T00:10:48;2.38;;;1.40;;
11827;SDS011;5971;49.646;8.568;2024-02-26T00:13:49;2.17;;;1.30;;
11827;SDS011;5971;49.646;8.568;2024-02-26T00:16:50;2.35;;;1.25;;
11827;SDS011;5971;49.646;8.568;2024-02-26T00:19:52;1.88;;;1.35;;
11827;SDS011;5971;49.646;8.568;2024-02-26T00:22:54;3.70;;;1.23;;
11827;SDS011;5971;49.646;8.568;2024-02-26T00:25:55;2.35;;;1.20;;
11827;SDS011;5971;49.646;8.568;2024-02-26T00:28:57;3.20;;;1.30;;
11827;SDS011;5971;49.646;8.568;2024-02-26T00:31:58;2.22;;;1.20;;
11827;SDS011;5971;49.646;8.568;2024-02-26T00:35:00;2.97;;;1.05;;
11827;SDS011;5971;49.646;8.568;2024-02-26T00:38:01;2.75;;;1.20;;
11827;SDS011;5971;49.646;8.568;2024-02-26T00:41:04;1.88;;;1.23;;
11827;SDS011;5971;49.646;8.568;2024-02-26T00:44:05;3.90;;;1.90;;
11827;SDS011;5971;49.646;8.568;2024-02-26T00:47:07;2.38;;;1.30;;
11827;SDS011;5971;49.646;8.568;2024-02-26T00:50:08;2.33;;;1.50;;
11827;SDS011;5971;49.646;8.568;2024-02-26T00:53:09;2.63;;;0.93;;
11827;SDS011;5971;49.646;8.568;2024-02-26T00:56:11;2.58;;;1.27;;
11827;SDS011;5971;49.646;8.568;2024-02-26T00:59:12;2.75;;;1.73;;
11827;SDS011;5971;49.646;8.568;2024-02-26T01:02:13;1.95;;;1.25;;
11827;SDS011;5971;49.646;8.568;2024-02-26T01:05:15;2.63;;;1.50;;
11827;SDS011;5971;49.646;8.568;2024-02-26T01:08:17;2.40;;;1.13;;
11827;SDS011;5971;49.646;8.568;2024-02-26T01:11:19;2.28;;;1.15;;
11827;SDS011;5971;49.646;8.568;2024-02-26T01:14:20;2.40;;;1.42;;
11827;SDS011;5971;49.646;8.568;2024-02-26T01:17:22;3.00;;;1.83;;
11827;SDS011;5971;49.646;8.568;2024-02-26T01:20:23;2.22;;;1.20;;
11827;SDS011;5971;49.646;8.568;2024-02-26T01:23:24;2.65;;;1.30;;
11827;SDS011;5971;49.646;8.568;2024-02-26T01:26:26;3.08;;;1.33;;
11827;SDS011;5971;49.646;8.568;2024-02-26T01:29:27;2.55;;;1.42;;
11827;SDS011;5971;49.646;8.568;2024-02-26T01:32:28;2.65;;;1.92;;
11827;SDS011;5971;49.646;8.568;2024-02-26T01:35:30;1.83;;;1.13;;
11827;SDS011;5971;49.646;8.568;2024-02-26T01:38:31;2.33;;;1.48;;
11827;SDS011;5971;49.646;8.568;2024-02-26T01:41:33;2.53;;;1.30;;
11827;SDS011;5971;49.646;8.568;2024-02-26T01:44:34;1.95;;;1.10;;
11827;SDS011;5971;49.646;8.568;2024-02-26T01:47:35;2.25;;;1.23;;
11827;SDS011;5971;49.646;8.568;2024-02-26T01:50:36;2.13;;;1.20;;
11827;SDS011;5971;49.646;8.568;2024-02-26T01:53:39;1.73;;;1.15;;
11827;SDS011;5971;49.646;8.568;2024-02-26T01:56:40;1.75;;;1.02;;
11827;SDS011;5971;49.646;8.568;2024-02-26T01:59:42;2.30;;;1.35;;
11827;SDS011;5971;49.646;8.568;2024-02-26T02:02:44;2.25;;;1.20;;
11827;SDS011;5971;49.646;8.568;2024-02-26T02:05:48;2.15;;;1.17;;
11827;SDS011;5971;49.646;8.568;2024-02-26T02:08:49;2.50;;;1.30;;
11827;SDS011;5971;49.646;8.568;2024-02-26T02:11:51;3.20;;;1.45;;
11827;SDS011;5971;49.646;8.568;2024-02-26T02:14:52;2.63;;;1.20;;
11827;SDS011;5971;49.646;8.568;2024-02-26T02:17:53;3.03;;;1.50;;
11827;SDS011;5971;49.646;8.568;2024-02-26T02:20:55;3.10;;;1.40;;
11827;SDS011;5971;49.646;8.568;2024-02-26T02:23:57;4.13;;;1.95;;
11827;SDS011;5971;49.646;8.568;2024-02-26T02:26:59;3.05;;;1.42;;
11827;SDS011;5971;49.646;8.568;2024-02-26T02:30:00;3.78;;;1.65;;
11827;SDS011;5971;49.646;8.568;2024-02-26T02:33:02;2.65;;;1.33;;
11827;SDS011;5971;49.646;8.568;2024-02-26T02:36:04;4.22;;;1.73;;
11827;SDS011;5971;49.646;8.568;2024-02-26T02:39:10;2.83;;;1.45;;
11827;SDS011;5971;49.646;8.568;2024-02-26T02:42:12;3.00;;;2.05;;
11827;SDS011;5971;49.646;8.568;2024-02-26T02:45:14;4.57;;;1.65;;
11827;SDS011;5971;49.646;8.568;2024-02-26T02:48:15;3.00;;;1.60;;
11827;SDS011;5971;49.646;8.568;2024-02-26T02:51:17;3.50;;;1.48;;
11827;SDS011;5971;49.646;8.568;2024-02-26T02:54:18;3.30;;;1.67;;
11827;SDS011;5971;49.646;8.568;2024-02-26T02:57:19;5.07;;;1.75;;
11827;SDS011;5971;49.646;8.568;2024-02-26T03:00:21;3.17;;;1.80;;
11827;SDS011;5971;49.646;8.568;2024-02-26T03:03:24;4.20;;;2.28;;
11827;SDS011;5971;49.646;8.568;2024-02-26T03:06:26;3.50;;;2.47;;
11827;SDS011;5971;49.646;8.568;2024-02-26T03:09:29;3.08;;;1.67;;
11827;SDS011;5971;49.646;8.568;2024-02-26T03:12:30;3.28;;;2.13;;
11827;SDS011;5971;49.646;8.568;2024-02-26T03:15:31;3.85;;;2.50;;
11827;SDS011;5971;49.646;8.568;2024-02-26T03:18:33;4.43;;;2.05;;
11827;SDS011;5971;49.646;8.568;2024-02-26T03:21:35;3.22;;;1.45;;
11827;SDS011;5971;49.646;8.568;2024-02-26T03:24:37;3.03;;;1.70;;
11827;SDS011;5971;49.646;8.568;2024-02-26T03:27:38;2.97;;;1.50;;
11827;SDS011;5971;49.646;8.568;2024-02-26T03:30:39;2.53;;;1.42;;
11827;SDS011;5971;49.646;8.568;2024-02-26T03:33:42;3.22;;;1.85;;
11827;SDS011;5971;49.646;8.568;2024-02-26T03:36:43;4.28;;;2.08;;
11827;SDS011;5971;49.646;8.568;2024-02-26T03:39:45;5.05;;;1.85;;
11827;SDS011;5971;49.646;8.568;2024-02-26T03:42:46;4.40;;;1.92;;
11827;SDS011;5971;49.646;8.568;2024-02-26T03:45:48;5.32;;;2.13;;
11827;SDS011;5971;49.646;8.568;2024-02-26T03:48:49;5.55;;;2.20;;
11827;SDS011;5971;49.646;8.568;2024-02-26T03:51:51;4.35;;;2.70;;
11827;SDS011;5971;49.646;8.568;2024-02-26T03:54:52;5.18;;;2.05;;
11827;SDS011;5971;49.646;8.568;2024-02-26T03:57:53;5.63;;;2.75;;
11827;SDS011;5971;49.646;8.568;2024-02-26T04:00:55;4.72;;;2.90;;
11827;SDS011;5971;49.646;8.568;2024-02-26T04:03:56;4.63;;;1.95;;
11827;SDS011;5971;49.646;8.568;2024-02-26T04:06:58;4.47;;;2.35;;
11827;SDS011;5971;49.646;8.568;2024-02-26T04:09:59;3.88;;;2.58;;
11827;SDS011;5971;49.646;8.568;2024-02-26T04:13:05;4.65;;;2.03;;
11827;SDS011;5971;49.646;8.568;2024-02-26T04:16:06;4.85;;;2.80;;
11827;SDS011;5971;49.646;8.568;2024-02-26T04:19:08;3.55;;;1.83;;
11827;SDS011;5971;49.646;8.568;2024-02-26T04:22:09;3.67;;;2.03;;
11827;SDS011;5971;49.646;8.568;2024-02-26T04:25:11;4.15;;;2.30;;
11827;SDS011;5971;49.646;8.568;2024-02-26T04:28:12;4.97;;;2.50;;
11827;SDS011;5971;49.646;8.568;2024-02-26T04:31:13;4.45;;;2.42;;
11827;SDS011;5971;49.646;8.568;2024-02-26T04:34:15;4.80;;;2.50;;
11827;SDS011;5971;49.646;8.568;2024-02-26T04:37:16;4.63;;;2.72;;
11827;SDS011;5971;49.646;8.568;2024-02-26T04:40:18;3.80;;;2.10;;
11827;SDS011;5971;49.646;8.568;2024-02-26T04:43:19;5.68;;;2.90;;
11827;SDS011;5971;49.646;8.568;2024-02-26T04:46:20;6.30;;;2.85;;
11827;SDS011;5971;49.646;8.568;2024-02-26T04:49:25;4.07;;;2.50;;
11827;SDS011;5971;49.646;8.568;2024-02-26T04:52:26;3.15;;;1.85;;
11827;SDS011;5971;49.646;8.568;2024-02-26T04:55:28;4.43;;;2.00;;
11827;SDS011;5971;49.646;8.568;2024-02-26T04:58:29;3.80;;;2.22;;
11827;SDS011;5971;49.646;8.568;2024-02-26T05:01:30;3.67;;;1.80;;
11827;SDS011;5971;49.646;8.568;2024-02-26T05:04:31;2.63;;;1.45;;
11827;SDS011;5971;49.646;8.568;2024-02-26T05:07:33;4.65;;;1.60;;
11827;SDS011;5971;49.646;8.568;2024-02-26T05:10:34;2.33;;;1.60;;
11827;SDS011;5971;49.646;8.568;2024-02-26T05:13:40;3.92;;;1.42;;
11827;SDS011;5971;49.646;8.568;2024-02-26T05:16:42;2.70;;;1.45;;
11827;SDS011;5971;49.646;8.568;2024-02-26T05:19:43;2.85;;;1.40;;
11827;SDS011;5971;49.646;8.568;2024-02-26T05:22:45;3.08;;;1.80;;
11827;SDS011;5971;49.646;8.568;2024-02-26T05:25:46;3.50;;;2.45;;
11827;SDS011;5971;49.646;8.568;2024-02-26T05:28:49;2.90;;;1.75;;
11827;SDS011;5971;49.646;8.568;2024-02-26T05:31:50;2.58;;;1.33;;
11827;SDS011;5971;49.646;8.568;2024-02-26T05:34:51;2.97;;;1.40;;
11827;SDS011;5971;49.646;8.568;2024-02-26T05:37:53;2.50;;;1.70;;
11827;SDS011;5971;49.646;8.568;2024-02-26T05:40:55;2.45;;;1.23;;
11827;SDS011;5971;49.646;8.568;2024-02-26T05:43:56;2.47;;;1.10;;
11827;SDS011;5971;49.646;8.568;2024-02-26T05:46:57;4.43;;;1.02;;
11827;SDS011;5971;49.646;8.568;2024-02-26T05:49:59;1.92;;;1.10;;
11827;SDS011;5971;49.646;8.568;2024-02-26T05:53:02;2.05;;;1.10;;
11827;SDS011;5971;49.646;8.568;2024-02-26T05:56:03;2.38;;;1.20;;
11827;SDS011;5971;49.646;8.568;2024-02-26T05:59:04;2.30;;;1.20;;
11827;SDS011;5971;49.646;8.568;2024-02-26T06:02:06;2.30;;;1.80;;
11827;SDS011;5971;49.646;8.568;2024-02-26T06:05:08;2.05;;;1.10;;
11827;SDS011;5971;49.646;8.568;2024-02-26T06:08:10;2.05;;;1.13;;
11827;SDS011;5971;49.646;8.568;2024-02-26T06:11:11;2.08;;;1.55;;
11827;SDS011;5971;49.646;8.568;2024-02-26T06:14:13;1.77;;;1.23;;
11827;SDS011;5971;49.646;8.568;2024-02-26T06:17:15;1.80;;;1.10;;
11827;SDS011;5971;49.646;8.568;2024-02-26T06:20:17;1.95;;;1.05;;
11827;SDS011;5971;49.646;8.568;2024-02-26T06:23:18;2.67;;;1.65;;
11827;SDS011;5971;49.646;8.568;2024-02-26T06:26:20;1.45;;;0.85;;
11827;SDS011;5971;49.646;8.568;2024-02-26T06:29:21;1.88;;;1.10;;
11827;SDS011;5971;49.646;8.568;2024-02-26T06:32:22;1.83;;;0.98;;
11827;SDS011;5971;49.646;8.568;2024-02-26T06:35:24;1.60;;;0.85;;
11827;SDS011;5971;49.646;8.568;2024-02-26T06:38:25;2.00;;;0.80;;
11827;SDS011;5971;49.646;8.568;2024-02-26T06:41:27;1.80;;;1.05;;
11827;SDS011;5971;49.646;8.568;2024-02-26T06:44:30;2.22;;;1.00;;
11827;SDS011;5971;49.646;8.568;2024-02-26T06:47:35;3.38;;;1.10;;
11827;SDS011;5971;49.646;8.568;2024-02-26T06:50:36;2.10;;;0.90;;
11827;SDS011;5971;49.646;8.568;2024-02-26T06:53:37;2.00;;;1.42;;
11827;SDS011;5971;49.646;8.568;2024-02-26T06:56:39;2.33;;;1.00;;
11827;SDS011;5971;49.646;8.568;2024-02-26T06:59:40;2.17;;;1.00;;
11827;SDS011;5971;49.646;8.568;2024-02-26T07:02:42;1.95;;;1.30;;
11827;SDS011;5971;49.646;8.568;2024-02-26T07:05:43;3.05;;;1.23;;
11827;SDS011;5971;49.646;8.568;2024-02-26T07:08:46;2.20;;;1.23;;
11827;SDS011;5971;49.646;8.568;2024-02-26T07:11:49;3.15;;;1.50;;
11827;SDS011;5971;49.646;8.568;2024-02-26T07:14:50;1.52;;;1.13;;
11827;SDS011;5971;49.646;8.568;2024-02-26T07:17:53;2.67;;;1.20;;
11827;SDS011;5971;49.646;8.568;2024-02-26T07:20:55;3.22;;;1.50;;
11827;SDS011;5971;49.646;8.568;2024-02-26T07:23:57;2.15;;;1.20;;
11827;SDS011;5971;49.646;8.568;2024-02-26T07:26:59;3.25;;;1.40;;
11827;SDS011;5971;49.646;8.568;2024-02-26T07:30:00;2.45;;;1.38;;
11827;SDS011;5971;49.646;8.568;2024-02-26T07:33:02;2.67;;;1.40;;
11827;SDS011;5971;49.646;8.568;2024-02-26T07:36:03;3.30;;;2.30;;
11827;SDS011;5971;49.646;8.568;2024-02-26T07:39:05;2.97;;;1.58;;
11827;SDS011;5971;49.646;8.568;2024-02-26T07:42:09;3.67;;;1.73;;
11827;SDS011;5971;49.646;8.568;2024-02-26T07:45:10;3.10;;;1.75;;
11827;SDS011;5971;49.646;8.568;2024-02-26T07:48:12;4.50;;;3.78;;
11827;SDS011;5971;49.646;8.568;2024-02-26T07:51:15;3.17;;;1.75;;
11827;SDS011;5971;49.646;8.568;2024-02-26T07:54:16;7.68;;;5.88;;
11827;SDS011;5971;49.646;8.568;2024-02-26T07:57:18;7.13;;;3.38;;
11827;SDS011;5971;49.646;8.568;2024-02-26T08:00:19;7.57;;;2.60;;
11827;SDS011;5971;49.646;8.568;2024-02-26T08:03:21;3.03;;;1.83;;
11827;SDS011;5971;49.646;8.568;2024-02-26T08:06:23;3.45;;;2.30;;
11827;SDS011;5971;49.646;8.568;2024-02-26T08:09:24;2.90;;;1.88;;
11827;SDS011;5971;49.646;8.568;2024-02-26T08:12:26;2.78;;;1.60;;
11827;SDS011;5971;49.646;8.568;2024-02-26T08:15:28;2.97;;;1.50;;
11827;SDS011;5971;49.646;8.568;2024-02-26T08:18:29;2.58;;;1.40;;
11827;SDS011;5971;49.646;8.568;2024-02-26T08:21:31;2.38;;;1.48;;
11827;SDS011;5971;49.646;8.568;2024-02-26T08:24:32;3.03;;;1.70;;
11827;SDS011;5971;49.646;8.568;2024-02-26T08:27:34;2.08;;;1.40;;
11827;SDS011;5971;49.646;8.568;2024-02-26T08:30:35;2.10;;;1.33;;
11827;SDS011;5971;49.646;8.568;2024-02-26T08:33:36;3.03;;;1.92;;
11827;SDS011;5971;49.646;8.568;2024-02-26T08:36:38;2.13;;;1.30;;
11827;SDS011;5971;49.646;8.568;2024-02-26T08:39:39;6.30;;;2.55;;
11827;SDS011;5971;49.646;8.568;2024-02-26T08:42:41;3.35;;;1.92;;
11827;SDS011;5971;49.646;8.568;2024-02-26T08:45:42;2.80;;;1.75;;
11827;SDS011;5971;49.646;8.568;2024-02-26T08:48:44;2.58;;;1.80;;
11827;SDS011;5971;49.646;8.568;2024-02-26T08:51:45;1.83;;;1.02;;
11827;SDS011;5971;49.646;8.568;2024-02-26T08:54:46;2.00;;;0.90;;
11827;SDS011;5971;49.646;8.568;2024-02-26T08:57:48;2.13;;;1.35;;
11827;SDS011;5971;49.646;8.568;2024-02-26T09:00:49;2.55;;;0.90;;
11827;SDS011;5971;49.646;8.568;2024-02-26T09:03:51;1.83;;;1.00;;
11827;SDS011;5971;49.646;8.568;2024-02-26T09:06:53;2.00;;;1.00;;
11827;SDS011;5971;49.646;8.568;2024-02-26T09:09:55;1.75;;;0.95;;
11827;SDS011;5971;49.646;8.568;2024-02-26T09:12:56;1.25;;;1.10;;
11827;SDS011;5971;49.646;8.568;2024-02-26T09:15:57;2.08;;;0.82;;
11827;SDS011;5971;49.646;8.568;2024-02-26T09:19:01;1.60;;;0.90;;
11827;SDS011;5971;49.646;8.568;2024-02-26T09:22:04;2.78;;;1.55;;
11827;SDS011;5971;49.646;8.568;2024-02-26T09:25:05;2.35;;;1.20;;
11827;SDS011;5971;49.646;8.568;2024-02-26T09:28:07;4.35;;;1.30;;
11827;SDS011;5971;49.646;8.568;2024-02-26T09:31:09;2.75;;;1.27;;
11827;SDS011;5971;49.646;8.568;2024-02-26T09:34:10;2.60;;;1.33;;
11827;SDS011;5971;49.646;8.568;2024-02-26T09:37:12;3.53;;;1.30;;
11827;SDS011;5971;49.646;8.568;2024-02-26T09:40:22;2.60;;;1.85;;
11827;SDS011;5971;49.646;8.568;2024-02-26T09:43:23;3.72;;;2.00;;
11827;SDS011;5971;49.646;8.568;2024-02-26T09:46:25;3.30;;;1.52;;
11827;SDS011;5971;49.646;8.568;2024-02-26T09:49:26;3.35;;;1.73;;
11827;SDS011;5971;49.646;8.568;2024-02-26T09:52:28;2.63;;;1.40;;
11827;SDS011;5971;49.646;8.568;2024-02-26T09:55:30;4.30;;;2.30;;
11827;SDS011;5971;49.646;8.568;2024-02-26T09:58:32;3.42;;;1.80;;
11827;SDS011;5971;49.646;8.568;2024-02-26T10:01:37;2.70;;;1.50;;
11827;SDS011;5971;49.646;8.568;2024-02-26T10:04:40;3.38;;;1.52;;
11827;SDS011;5971;49.646;8.568;2024-02-26T10:07:42;2.25;;;1.17;;
11827;SDS011;5971;49.646;8.568;2024-02-26T10:10:43;3.80;;;1.02;;
11827;SDS011;5971;49.646;8.568;2024-02-26T10:13:45;2.45;;;1.35;;
11827;SDS011;5971;49.646;8.568;2024-02-26T10:16:46;2.25;;;1.20;;
11827;SDS011;5971;49.646;8.568;2024-02-26T10:19:48;1.83;;;0.90;;
11827;SDS011;5971;49.646;8.568;2024-02-26T10:22:49;1.80;;;0.90;;
11827;SDS011;5971;49.646;8.568;2024-02-26T10:25:52;1.65;;;0.90;;
11827;SDS011;5971;49.646;8.568;2024-02-26T10:28:55;1.98;;;1.00;;
11827;SDS011;5971;49.646;8.568;2024-02-26T10:32:00;2.28;;;1.02;;
11827;SDS011;5971;49.646;8.568;2024-02-26T10:35:02;3.80;;;1.50;;
11827;SDS011;5971;49.646;8.568;2024-02-26T10:38:04;2.72;;;1.35;;
11827;SDS011;5971;49.646;8.568;2024-02-26T10:41:06;2.80;;;1.40;;
11827;SDS011;5971;49.646;8.568;2024-02-26T10:44:10;2.85;;;1.88;;
11827;SDS011;5971;49.646;8.568;2024-02-26T10:47:15;2.20;;;1.00;;
11827;SDS011;5971;49.646;8.568;2024-02-26T10:50:17;1.85;;;1.10;;
11827;SDS011;5971;49.646;8.568;2024-02-26T10:53:22;1.40;;;0.90;;
11827;SDS011;5971;49.646;8.568;2024-02-26T10:56:24;2.30;;;1.42;;
11827;SDS011;5971;49.646;8.568;2024-02-26T10:59:27;2.38;;;1.10;;
11827;SDS011;5971;49.646;8.568;2024-02-26T11:02:28;1.65;;;0.80;;
11827;SDS011;5971;49.646;8.568;2024-02-26T11:05:30;1.20;;;0.70;;
11827;SDS011;5971;49.646;8.568;2024-02-26T11:08:31;1.70;;;0.80;;
11827;SDS011;5971;49.646;8.568;2024-02-26T11:11:33;2.33;;;1.23;;
11827;SDS011;5971;49.646;8.568;2024-02-26T11:14:36;2.03;;;1.00;;
11827;SDS011;5971;49.646;8.568;2024-02-26T11:17:39;2.03;;;1.08;;
11827;SDS011;5971;49.646;8.568;2024-02-26T11:20:43;1.27;;;0.75;;
11827;SDS011;5971;49.646;8.568;2024-02-26T11:23:46;2.95;;;1.40;;
11827;SDS011;5971;49.646;8.568;2024-02-26T11:29:50;2.17;;;1.25;;
11827;SDS011;5971;49.646;8.568;2024-02-26T11:32:53;2.30;;;1.63;;
11827;SDS011;5971;49.646;8.568;2024-02-26T11:35:55;1.92;;;1.30;;
11827;SDS011;5971;49.646;8.568;2024-02-26T11:38:57;1.70;;;1.05;;
11827;SDS011;5971;49.646;8.568;2024-02-26T11:42:04;2.88;;;1.60;;
11827;SDS011;5971;49.646;8.568;2024-02-26T11:45:07;1.35;;;0.80;;
11827;SDS011;5971;49.646;8.568;2024-02-26T11:48:28;1.85;;;0.95;;
11827;SDS011;5971;49.646;8.568;2024-02-26T11:51:33;2.63;;;1.80;;
11827;SDS011;5971;49.646;8.568;2024-02-26T11:54:46;1.50;;;0.75;;
11827;SDS011;5971;49.646;8.568;2024-02-26T11:57:47;1.92;;;1.02;;
11827;SDS011;5971;49.646;8.568;2024-02-26T12:00:49;2.20;;;1.58;;
11827;SDS011;5971;49.646;8.568;2024-02-26T12:03:50;1.27;;;0.77;;
11827;SDS011;5971;49.646;8.568;2024-02-26T12:06:53;1.00;;;0.63;;
11827;SDS011;5971;49.646;8.568;2024-02-26T12:10:12;1.50;;;1.30;;
11827;SDS011;5971;49.646;8.568;2024-02-26T12:13:17;1.70;;;1.08;;
11827;SDS011;5971;49.646;8.568;2024-02-26T12:16:39;2.25;;;0.70;;
11827;SDS011;5971;49.646;8.568;2024-02-26T12:19:40;0.80;;;0.63;;
11827;SDS011;5971;49.646;8.568;2024-02-26T12:22:45;0.88;;;0.57;;
11827;SDS011;5971;49.646;8.568;2024-02-26T12:25:47;1.55;;;0.80;;
11827;SDS011;5971;49.646;8.568;2024-02-26T12:28:49;2.67;;;0.80;;
11827;SDS011;5971;49.646;8.568;2024-02-26T12:31:50;1.20;;;0.70;;
11827;SDS011;5971;49.646;8.568;2024-02-26T12:34:52;0.75;;;0.60;;
11827;SDS011;5971;49.646;8.568;2024-02-26T12:37:54;2.20;;;1.48;;
11827;SDS011;5971;49.646;8.568;2024-02-26T12:40:55;1.60;;;1.08;;
11827;SDS011;5971;49.646;8.568;2024-02-26T12:43:57;1.17;;;0.70;;
11827;SDS011;5971;49.646;8.568;2024-02-26T12:47:00;1.23;;;0.70;;
11827;SDS011;5971;49.646;8.568;2024-02-26T12:50:02;1.25;;;0.70;;
11827;SDS011;5971;49.646;8.568;2024-02-26T12:53:09;0.98;;;0.88;;
11827;SDS011;5971;49.646;8.568;2024-02-26T12:56:11;1.33;;;1.08;;
11827;SDS011;5971;49.646;8.568;2024-02-26T12:59:15;2.80;;;1.27;;
11827;SDS011;5971;49.646;8.568;2024-02-26T13:02:16;1.55;;;0.75;;
11827;SDS011;5971;49.646;8.568;2024-02-26T13:05:18;0.98;;;0.70;;
11827;SDS011;5971;49.646;8.568;2024-02-26T13:08:20;1.45;;;0.80;;
11827;SDS011;5971;49.646;8.568;2024-02-26T13:11:22;0.95;;;0.70;;
11827;SDS011;5971;49.646;8.568;2024-02-26T13:14:23;1.15;;;0.68;;
11827;SDS011;5971;49.646;8.568;2024-02-26T13:17:24;1.52;;;0.63;;
11827;SDS011;5971;49.646;8.568;2024-02-26T13:20:29;1.52;;;0.73;;
11827;SDS011;5971;49.646;8.568;2024-02-26T13:23:32;1.05;;;0.65;;
11827;SDS011;5971;49.646;8.568;2024-02-26T13:26:33;1.90;;;1.20;;
11827;SDS011;5971;49.646;8.568;2024-02-26T13:29:34;2.05;;;1.05;;
11827;SDS011;5971;49.646;8.568;2024-02-26T13:32:36;1.58;;;1.00;;
11827;SDS011;5971;49.646;8.568;2024-02-26T13:35:38;1.65;;;0.80;;
11827;SDS011;5971;49.646;8.568;2024-02-26T13:38:40;1.98;;;1.35;;
11827;SDS011;5971;49.646;8.568;2024-02-26T13:41:52;1.10;;;0.63;;
11827;SDS011;5971;49.646;8.568;2024-02-26T13:44:56;1.77;;;0.80;;
11827;SDS011;5971;49.646;8.568;2024-02-26T13:48:01;2.50;;;0.80;;
11827;SDS011;5971;49.646;8.568;2024-02-26T13:51:02;1.55;;;0.70;;
11827;SDS011;5971;49.646;8.568;2024-02-26T13:54:04;1.20;;;0.70;;
11827;SDS011;5971;49.646;8.568;2024-02-26T13:57:05;1.65;;;0.70;;
11827;SDS011;5971;49.646;8.568;2024-02-26T14:00:07;1.50;;;0.70;;
11827;SDS011;5971;49.646;8.568;2024-02-26T14:03:10;1.83;;;0.70;;
11827;SDS011;5971;49.646;8.568;2024-02-26T14:06:12;1.77;;;1.10;;
11827;SDS011;5971;49.646;8.568;2024-02-26T14:09:14;0.98;;;0.60;;
11827;SDS011;5971;49.646;8.568;2024-02-26T14:12:20;0.93;;;0.50;;
11827;SDS011;5971;49.646;8.568;2024-02-26T14:15:25;0.82;;;0.57;;
11827;SDS011;5971;49.646;8.568;2024-02-26T14:18:26;2.45;;;0.65;;
11827;SDS011;5971;49.646;8.568;2024-02-26T14:21:29;3.25;;;0.88;;
11827;SDS011;5971;49.646;8.568;2024-02-26T14:24:30;1.75;;;0.90;;
11827;SDS011;5971;49.646;8.568;2024-02-26T14:27:32;1.25;;;0.80;;
11827;SDS011;5971;49.646;8.568;2024-02-26T14:30:33;1.85;;;0.98;;
11827;SDS011;5971;49.646;8.568;2024-02-26T14:33:37;3.30;;;1.63;;
11827;SDS011;5971;49.646;8.568;2024-02-26T14:36:38;4.65;;;2.40;;
11827;SDS011;5971;49.646;8.568;2024-02-26T14:39:40;2.53;;;1.23;;
11827;SDS011;5971;49.646;8.568;2024-02-26T14:42:41;2.25;;;1.02;;
11827;SDS011;5971;49.646;8.568;2024-02-26T14:45:42;3.88;;;2.65;;
11827;SDS011;5971;49.646;8.568;2024-02-26T14:48:44;2.75;;;1.65;;
11827;SDS011;5971;49.646;8.568;2024-02-26T14:51:46;2.85;;;1.50;;
11827;SDS011;5971;49.646;8.568;2024-02-26T14:54:48;2.47;;;1.20;;
11827;SDS011;5971;49.646;8.568;2024-02-26T14:57:49;2.58;;;1.25;;
11827;SDS011;5971;49.646;8.568;2024-02-26T15:00:51;3.08;;;2.03;;
11827;SDS011;5971;49.646;8.568;2024-02-26T15:03:52;2.50;;;1.70;;
11827;SDS011;5971;49.646;8.568;2024-02-26T15:06:54;3.30;;;1.40;;
11827;SDS011;5971;49.646;8.568;2024-02-26T15:09:55;3.65;;;1.77;;
11827;SDS011;5971;49.646;8.568;2024-02-26T15:13:00;2.70;;;1.33;;
11827;SDS011;5971;49.646;8.568;2024-02-26T15:16:02;5.07;;;2.10;;
11827;SDS011;5971;49.646;8.568;2024-02-26T15:19:03;2.55;;;1.92;;
11827;SDS011;5971;49.646;8.568;2024-02-26T15:22:05;2.80;;;1.20;;
11827;SDS011;5971;49.646;8.568;2024-02-26T15:25:07;3.00;;;1.67;;
11827;SDS011;5971;49.646;8.568;2024-02-26T15:28:11;2.90;;;1.38;;
11827;SDS011;5971;49.646;8.568;2024-02-26T15:31:15;3.10;;;2.40;;
11827;SDS011;5971;49.646;8.568;2024-02-26T15:34:17;3.97;;;2.13;;
11827;SDS011;5971;49.646;8.568;2024-02-26T15:37:18;4.38;;;2.58;;
11827;SDS011;5971;49.646;8.568;2024-02-26T15:40:20;5.25;;;2.40;;
11827;SDS011;5971;49.646;8.568;2024-02-26T15:43:22;4.70;;;3.58;;
11827;SDS011;5971;49.646;8.568;2024-02-26T15:46:24;7.28;;;4.95;;
11827;SDS011;5971;49.646;8.568;2024-02-26T15:49:25;5.95;;;4.22;;
11827;SDS011;5971;49.646;8.568;2024-02-26T15:52:27;5.10;;;3.28;;
11827;SDS011;5971;49.646;8.568;2024-02-26T15:55:28;3.90;;;2.50;;
11827;SDS011;5971;49.646;8.568;2024-02-26T15:58:29;5.75;;;2.70;;
11827;SDS011;5971;49.646;8.568;2024-02-26T16:01:31;4.22;;;2.05;;
11827;SDS011;5971;49.646;8.568;2024-02-26T16:04:32;4.53;;;2.53;;
11827;SDS011;5971;49.646;8.568;2024-02-26T16:07:46;5.15;;;2.28;;
11827;SDS011;5971;49.646;8.568;2024-02-26T16:10:48;5.28;;;2.50;;
11827;SDS011;5971;49.646;8.568;2024-02-26T16:13:50;5.03;;;2.42;;
11827;SDS011;5971;49.646;8.568;2024-02-26T16:17:00;5.80;;;2.60;;
11827;SDS011;5971;49.646;8.568;2024-02-26T16:20:02;5.07;;;2.47;;
11827;SDS011;5971;49.646;8.568;2024-02-26T16:23:07;5.18;;;2.70;;
11827;SDS011;5971;49.646;8.568;2024-02-26T16:26:09;6.93;;;2.58;;
11827;SDS011;5971;49.646;8.568;2024-02-26T16:29:10;4.70;;;2.53;;
11827;SDS011;5971;49.646;8.568;2024-02-26T16:32:12;7.18;;;2.85;;
11827;SDS011;5971;49.646;8.568;2024-02-26T16:35:13;6.75;;;2.83;;
11827;SDS011;5971;49.646;8.568;2024-02-26T16:38:15;4.90;;;2.50;;
11827;SDS011;5971;49.646;8.568;2024-02-26T16:41:19;4.28;;;2.45;;
11827;SDS011;5971;49.646;8.568;2024-02-26T16:44:21;3.90;;;2.40;;
11827;SDS011;5971;49.646;8.568;2024-02-26T16:47:22;4.20;;;2.38;;
11827;SDS011;5971;49.646;8.568;2024-02-26T16:50:24;4.25;;;2.63;;
11827;SDS011;5971;49.646;8.568;2024-02-26T16:53:25;5.43;;;3.30;;
11827;SDS011;5971;49.646;8.568;2024-02-26T16:56:26;5.88;;;2.55;;
11827;SDS011;5971;49.646;8.568;2024-02-26T16:59:28;4.53;;;2.28;;
11827;SDS011;5971;49.646;8.568;2024-02-26T17:02:29;4.57;;;2.38;;
11827;SDS011;5971;49.646;8.568;2024-02-26T17:05:31;5.93;;;2.83;;
11827;SDS011;5971;49.646;8.568;2024-02-26T17:08:32;5.18;;;3.90;;
11827;SDS011;5971;49.646;8.568;2024-02-26T17:14:39;6.60;;;3.28;;
11827;SDS011;5971;49.646;8.568;2024-02-26T17:17:41;8.80;;;4.10;;
11827;SDS011;5971;49.646;8.568;2024-02-26T17:20:42;7.53;;;3.83;;
11827;SDS011;5971;49.646;8.568;2024-02-26T17:23:43;5.95;;;3.33;;
11827;SDS011;5971;49.646;8.568;2024-02-26T17:26:45;6.05;;;3.00;;
11827;SDS011;5971;49.646;8.568;2024-02-26T17:29:47;5.95;;;3.38;;
11827;SDS011;5971;49.646;8.568;2024-02-26T17:32:50;8.05;;;4.07;;
11827;SDS011;5971;49.646;8.568;2024-02-26T17:35:51;7.80;;;3.78;;
11827;SDS011;5971;49.646;8.568;2024-02-26T17:38:52;4.80;;;2.90;;
11827;SDS011;5971;49.646;8.568;2024-02-26T17:41:54;7.93;;;3.53;;
11827;SDS011;5971;49.646;8.568;2024-02-26T17:44:55;8.32;;;3.88;;
11827;SDS011;5971;49.646;8.568;2024-02-26T17:47:57;6.93;;;3.70;;
11827;SDS011;5971;49.646;8.568;2024-02-26T17:50:58;6.75;;;3.90;;
11827;SDS011;5971;49.646;8.568;2024-02-26T17:54:00;6.32;;;3.33;;
11827;SDS011;5971;49.646;8.568;2024-02-26T17:57:01;6.00;;;3.80;;
11827;SDS011;5971;49.646;8.568;2024-02-26T18:00:03;7.20;;;3.55;;
11827;SDS011;5971;49.646;8.568;2024-02-26T18:03:04;5.95;;;3.10;;
11827;SDS011;5971;49.646;8.568;2024-02-26T18:06:06;5.60;;;3.38;;
11827;SDS011;5971;49.646;8.568;2024-02-26T18:09:07;6.32;;;3.30;;
11827;SDS011;5971;49.646;8.568;2024-02-26T18:12:10;5.85;;;3.30;;
11827;SDS011;5971;49.646;8.568;2024-02-26T18:15:11;4.82;;;2.78;;
11827;SDS011;5971;49.646;8.568;2024-02-26T18:18:13;5.38;;;3.00;;
11827;SDS011;5971;49.646;8.568;2024-02-26T18:21:14;7.45;;;3.30;;
11827;SDS011;5971;49.646;8.568;2024-02-26T18:24:21;5.65;;;2.80;;
11827;SDS011;5971;49.646;8.568;2024-02-26T18:27:23;5.78;;;3.00;;
11827;SDS011;5971;49.646;8.568;2024-02-26T18:30:24;7.82;;;4.15;;
11827;SDS011;5971;49.646;8.568;2024-02-26T18:33:26;6.55;;;3.00;;
11827;SDS011;5971;49.646;8.568;2024-02-26T18:36:27;7.07;;;2.90;;
11827;SDS011;5971;49.646;8.568;2024-02-26T18:39:29;6.65;;;2.97;;